sensor_id;sensor_type;location;lat;lon;timestamp;P1;durP1;ratioP1;P2;durP2;ratioP2
7211;SDS011;3647;48.792;9.802;2022-12-18T08:39:57;31.37;;;17.97;;
7211;SDS011;3647;48.792;9.802;2022-12-18T08:42:24;29.37;;;18.83;;
7211;SDS011;3647;48.792;9.802;2022-12-18T08:45:08;37.80;;;20.47;;
7211;SDS011;3647;48.792;9.802;2022-12-18T08:47:36;33.20;;;19.20;;
7211;SDS011;3647;48.792;9.802;2022-12-18T08:50:03;32.13;;;19.67;;
7211;SDS011;3647;48.792;9.802;2022-12-18T08:52:32;33.80;;;18.63;;
7211;SDS011;3647;48.792;9.802;2022-12-18T08:54:59;34.30;;;19.50;;
7211;SDS011;3647;48.792;9.802;2022-12-18T08:57:26;33.67;;;17.13;;
7211;SDS011;3647;48.792;9.802;2022-12-18T08:59:53;31.17;;;18.17;;
7211;SDS011;3647;48.792;9.802;2022-12-18T09:02:19;42.90;;;20.33;;
7211;SDS011;3647;48.792;9.802;2022-12-18T09:04:46;41.17;;;19.23;;
7211;SDS011;3647;48.792;9.802;2022-12-18T09:07:13;41.57;;;22.37;;
7211;SDS011;3647;48.792;9.802;2022-12-18T09:09:42;39.13;;;21.20;;
7211;SDS011;3647;48.792;9.802;2022-12-18T09:12:09;38.03;;;21.23;;
7211;SDS011;3647;48.792;9.802;2022-12-18T09:14:35;48.50;;;22.27;;
7211;SDS011;3647;48.792;9.802;2022-12-18T09:17:02;44.87;;;21.97;;
7211;SDS011;3647;48.792;9.802;2022-12-18T09:19:29;33.37;;;17.90;;
7211;SDS011;3647;48.792;9.802;2022-12-18T09:21:57;34.90;;;19.43;;
7211;SDS011;3647;48.792;9.802;2022-12-18T09:24:24;38.63;;;20.07;;
7211;SDS011;3647;48.792;9.802;2022-12-18T09:26:54;44.07;;;20.13;;
7211;SDS011;3647;48.792;9.802;2022-12-18T09:29:21;39.60;;;20.17;;
7211;SDS011;3647;48.792;9.802;2022-12-18T09:31:48;39.87;;;20.07;;
7211;SDS011;3647;48.792;9.802;2022-12-18T09:34:15;41.90;;;21.93;;
7211;SDS011;3647;48.792;9.802;2022-12-18T09:36:42;39.93;;;20.67;;
7211;SDS011;3647;48.792;9.802;2022-12-18T09:39:09;37.27;;;21.03;;
7211;SDS011;3647;48.792;9.802;2022-12-18T09:41:40;44.27;;;21.77;;
7211;SDS011;3647;48.792;9.802;2022-12-18T09:44:18;42.53;;;21.83;;
7211;SDS011;3647;48.792;9.802;2022-12-18T09:46:52;45.97;;;23.07;;
7211;SDS011;3647;48.792;9.802;2022-12-18T09:49:39;38.47;;;21.13;;
7211;SDS011;3647;48.792;9.802;2022-12-18T09:52:10;40.77;;;21.17;;
7211;SDS011;3647;48.792;9.802;2022-12-18T09:54:41;31.90;;;18.90;;
7211;SDS011;3647;48.792;9.802;2022-12-18T09:57:13;39.73;;;20.80;;
7211;SDS011;3647;48.792;9.802;2022-12-18T09:59:44;30.77;;;19.27;;
7211;SDS011;3647;48.792;9.802;2022-12-18T10:02:16;36.30;;;20.37;;
7211;SDS011;3647;48.792;9.802;2022-12-18T10:04:48;42.03;;;21.03;;
7211;SDS011;3647;48.792;9.802;2022-12-18T10:07:24;46.37;;;20.80;;
7211;SDS011;3647;48.792;9.802;2022-12-18T10:09:58;38.77;;;22.40;;
7211;SDS011;3647;48.792;9.802;2022-12-18T10:12:32;49.97;;;27.10;;
7211;SDS011;3647;48.792;9.802;2022-12-18T10:15:10;46.03;;;23.40;;
7211;SDS011;3647;48.792;9.802;2022-12-18T10:17:45;41.87;;;23.23;;
7211;SDS011;3647;48.792;9.802;2022-12-18T10:20:20;41.33;;;21.17;;
7211;SDS011;3647;48.792;9.802;2022-12-18T10:22:59;42.53;;;20.57;;
7211;SDS011;3647;48.792;9.802;2022-12-18T10:25:31;36.33;;;19.47;;
7211;SDS011;3647;48.792;9.802;2022-12-18T10:28:07;36.33;;;20.13;;
7211;SDS011;3647;48.792;9.802;2022-12-18T10:30:39;44.33;;;20.57;;
7211;SDS011;3647;48.792;9.802;2022-12-18T10:33:08;35.47;;;18.27;;
7211;SDS011;3647;48.792;9.802;2022-12-18T10:35:40;32.67;;;18.57;;
7211;SDS011;3647;48.792;9.802;2022-12-18T10:38:20;35.37;;;18.83;;
7211;SDS011;3647;48.792;9.802;2022-12-18T10:40:49;37.40;;;17.97;;
7211;SDS011;3647;48.792;9.802;2022-12-18T10:43:22;31.63;;;17.77;;
7211;SDS011;3647;48.792;9.802;2022-12-18T10:46:02;31.37;;;16.80;;
7211;SDS011;3647;48.792;9.802;2022-12-18T10:48:39;32.23;;;14.83;;
7211;SDS011;3647;48.792;9.802;2022-12-18T10:51:19;27.80;;;14.07;;
7211;SDS011;3647;48.792;9.802;2022-12-18T10:53:51;25.13;;;13.60;;
7211;SDS011;3647;48.792;9.802;2022-12-18T10:56:20;28.97;;;14.20;;
7211;SDS011;3647;48.792;9.802;2022-12-18T10:58:54;26.00;;;13.80;;
7211;SDS011;3647;48.792;9.802;2022-12-18T11:01:24;28.00;;;14.43;;
7211;SDS011;3647;48.792;9.802;2022-12-18T11:03:59;25.50;;;13.10;;
7211;SDS011;3647;48.792;9.802;2022-12-18T11:06:27;27.43;;;13.83;;
7211;SDS011;3647;48.792;9.802;2022-12-18T11:08:57;27.60;;;14.60;;
7211;SDS011;3647;48.792;9.802;2022-12-18T11:11:25;31.80;;;14.80;;
7211;SDS011;3647;48.792;9.802;2022-12-18T11:13:58;28.50;;;14.93;;
7211;SDS011;3647;48.792;9.802;2022-12-18T11:16:30;28.80;;;14.47;;
7211;SDS011;3647;48.792;9.802;2022-12-18T11:19:09;24.93;;;13.93;;
7211;SDS011;3647;48.792;9.802;2022-12-18T11:21:41;33.47;;;15.93;;
7211;SDS011;3647;48.792;9.802;2022-12-18T11:24:14;26.70;;;13.60;;
7211;SDS011;3647;48.792;9.802;2022-12-18T11:26:47;29.83;;;15.07;;
7211;SDS011;3647;48.792;9.802;2022-12-18T11:29:16;27.23;;;14.77;;
7211;SDS011;3647;48.792;9.802;2022-12-18T11:31:47;26.67;;;14.33;;
7211;SDS011;3647;48.792;9.802;2022-12-18T11:34:15;26.87;;;14.17;;
7211;SDS011;3647;48.792;9.802;2022-12-18T11:36:49;27.80;;;14.13;;
7211;SDS011;3647;48.792;9.802;2022-12-18T11:39:17;29.73;;;14.83;;
7211;SDS011;3647;48.792;9.802;2022-12-18T11:41:52;23.37;;;14.27;;
7211;SDS011;3647;48.792;9.802;2022-12-18T11:44:39;29.30;;;14.73;;
7211;SDS011;3647;48.792;9.802;2022-12-18T11:47:13;25.67;;;13.23;;
7211;SDS011;3647;48.792;9.802;2022-12-18T11:49:47;28.10;;;15.00;;
7211;SDS011;3647;48.792;9.802;2022-12-18T11:52:16;26.50;;;13.60;;
7211;SDS011;3647;48.792;9.802;2022-12-18T11:54:47;31.70;;;15.17;;
7211;SDS011;3647;48.792;9.802;2022-12-18T11:57:19;31.37;;;14.53;;
7211;SDS011;3647;48.792;9.802;2022-12-18T12:00:00;25.23;;;14.13;;
7211;SDS011;3647;48.792;9.802;2022-12-18T12:02:36;30.30;;;14.60;;
7211;SDS011;3647;48.792;9.802;2022-12-18T12:05:16;27.03;;;13.63;;
7211;SDS011;3647;48.792;9.802;2022-12-18T12:07:52;28.20;;;15.27;;
7211;SDS011;3647;48.792;9.802;2022-12-18T12:10:28;27.47;;;15.67;;
7211;SDS011;3647;48.792;9.802;2022-12-18T12:13:11;32.67;;;15.50;;
7211;SDS011;3647;48.792;9.802;2022-12-18T12:15:48;30.73;;;15.63;;
7211;SDS011;3647;48.792;9.802;2022-12-18T12:18:28;33.27;;;16.03;;
7211;SDS011;3647;48.792;9.802;2022-12-18T12:21:05;34.70;;;15.47;;
7211;SDS011;3647;48.792;9.802;2022-12-18T12:23:42;29.53;;;15.60;;
7211;SDS011;3647;48.792;9.802;2022-12-18T12:26:17;28.17;;;14.90;;
7211;SDS011;3647;48.792;9.802;2022-12-18T12:29:00;26.00;;;14.27;;
7211;SDS011;3647;48.792;9.802;2022-12-18T12:31:56;29.33;;;15.80;;
7211;SDS011;3647;48.792;9.802;2022-12-18T12:34:33;35.47;;;15.90;;
7211;SDS011;3647;48.792;9.802;2022-12-18T12:37:11;28.00;;;14.67;;
7211;SDS011;3647;48.792;9.802;2022-12-18T12:39:46;35.17;;;20.27;;
7211;SDS011;3647;48.792;9.802;2022-12-18T12:42:15;30.37;;;16.80;;
7211;SDS011;3647;48.792;9.802;2022-12-18T12:45:03;28.40;;;15.27;;
7211;SDS011;3647;48.792;9.802;2022-12-18T12:47:33;28.17;;;15.23;;
7211;SDS011;3647;48.792;9.802;2022-12-18T12:50:11;26.27;;;14.90;;
7211;SDS011;3647;48.792;9.802;2022-12-18T12:52:40;29.17;;;15.00;;
7211;SDS011;3647;48.792;9.802;2022-12-18T12:55:13;27.57;;;14.30;;
7211;SDS011;3647;48.792;9.802;2022-12-18T12:57:43;24.43;;;14.07;;
7211;SDS011;3647;48.792;9.802;2022-12-18T13:00:15;30.47;;;14.53;;
7211;SDS011;3647;48.792;9.802;2022-12-18T13:02:46;30.73;;;14.43;;
7211;SDS011;3647;48.792;9.802;2022-12-18T13:05:19;27.17;;;14.80;;
7211;SDS011;3647;48.792;9.802;2022-12-18T13:07:51;31.13;;;15.03;;
7211;SDS011;3647;48.792;9.802;2022-12-18T13:13:07;32.07;;;15.37;;
7211;SDS011;3647;48.792;9.802;2022-12-18T13:15:37;28.90;;;14.20;;
7211;SDS011;3647;48.792;9.802;2022-12-18T13:18:13;30.63;;;15.33;;
7211;SDS011;3647;48.792;9.802;2022-12-18T13:20:44;27.20;;;15.37;;
7211;SDS011;3647;48.792;9.802;2022-12-18T13:23:23;32.53;;;16.17;;
7211;SDS011;3647;48.792;9.802;2022-12-18T13:25:54;23.90;;;13.83;;
7211;SDS011;3647;48.792;9.802;2022-12-18T13:28:21;32.40;;;15.30;;
7211;SDS011;3647;48.792;9.802;2022-12-18T13:30:51;32.80;;;15.50;;
7211;SDS011;3647;48.792;9.802;2022-12-18T13:36:23;27.67;;;14.40;;
7211;SDS011;3647;48.792;9.802;2022-12-18T13:39:09;26.47;;;13.97;;
7211;SDS011;3647;48.792;9.802;2022-12-18T13:41:52;33.87;;;14.70;;
7211;SDS011;3647;48.792;9.802;2022-12-18T13:45:01;26.33;;;12.80;;
7211;SDS011;3647;48.792;9.802;2022-12-18T13:47:52;26.93;;;14.20;;
7211;SDS011;3647;48.792;9.802;2022-12-18T13:50:22;31.60;;;15.30;;
7211;SDS011;3647;48.792;9.802;2022-12-18T13:52:50;24.83;;;13.97;;
7211;SDS011;3647;48.792;9.802;2022-12-18T13:55:19;27.97;;;14.97;;
7211;SDS011;3647;48.792;9.802;2022-12-18T13:57:48;25.37;;;13.53;;
7211;SDS011;3647;48.792;9.802;2022-12-18T14:00:25;29.37;;;15.07;;
7211;SDS011;3647;48.792;9.802;2022-12-18T14:02:53;25.47;;;14.77;;
7211;SDS011;3647;48.792;9.802;2022-12-18T14:05:21;23.73;;;13.83;;
7211;SDS011;3647;48.792;9.802;2022-12-18T14:07:48;26.23;;;14.53;;
7211;SDS011;3647;48.792;9.802;2022-12-18T14:10:16;29.97;;;15.03;;
7211;SDS011;3647;48.792;9.802;2022-12-18T14:12:44;28.27;;;14.77;;
7211;SDS011;3647;48.792;9.802;2022-12-18T14:15:24;30.10;;;14.73;;
7211;SDS011;3647;48.792;9.802;2022-12-18T14:17:58;34.20;;;16.80;;
7211;SDS011;3647;48.792;9.802;2022-12-18T14:20:28;32.27;;;16.43;;
7211;SDS011;3647;48.792;9.802;2022-12-18T14:22:57;34.23;;;18.33;;
7211;SDS011;3647;48.792;9.802;2022-12-18T14:25:26;33.77;;;18.23;;
7211;SDS011;3647;48.792;9.802;2022-12-18T14:28:02;34.27;;;19.13;;
7211;SDS011;3647;48.792;9.802;2022-12-18T14:30:39;36.73;;;18.93;;
7211;SDS011;3647;48.792;9.802;2022-12-18T14:33:09;37.53;;;19.83;;
7211;SDS011;3647;48.792;9.802;2022-12-18T14:35:37;37.73;;;20.03;;
7211;SDS011;3647;48.792;9.802;2022-12-18T14:38:10;36.37;;;19.00;;
7211;SDS011;3647;48.792;9.802;2022-12-18T14:40:47;30.13;;;17.23;;
7211;SDS011;3647;48.792;9.802;2022-12-18T14:43:17;29.70;;;15.70;;
7211;SDS011;3647;48.792;9.802;2022-12-18T14:45:46;27.43;;;14.83;;
7211;SDS011;3647;48.792;9.802;2022-12-18T14:48:15;27.17;;;14.40;;
7211;SDS011;3647;48.792;9.802;2022-12-18T14:50:43;28.87;;;14.87;;
7211;SDS011;3647;48.792;9.802;2022-12-18T14:53:20;28.87;;;15.30;;
7211;SDS011;3647;48.792;9.802;2022-12-18T14:55:49;30.23;;;15.27;;
7211;SDS011;3647;48.792;9.802;2022-12-18T14:58:16;30.57;;;16.30;;
7211;SDS011;3647;48.792;9.802;2022-12-18T15:00:45;32.63;;;15.73;;
7211;SDS011;3647;48.792;9.802;2022-12-18T15:03:13;33.13;;;16.63;;
7211;SDS011;3647;48.792;9.802;2022-12-18T15:05:45;32.13;;;15.77;;
7211;SDS011;3647;48.792;9.802;2022-12-18T15:08:29;26.53;;;14.13;;
7211;SDS011;3647;48.792;9.802;2022-12-18T15:10:57;31.00;;;15.70;;
7211;SDS011;3647;48.792;9.802;2022-12-18T15:13:24;27.37;;;14.17;;
7211;SDS011;3647;48.792;9.802;2022-12-18T15:15:53;28.53;;;14.57;;
7211;SDS011;3647;48.792;9.802;2022-12-18T15:18:23;31.17;;;15.33;;
7211;SDS011;3647;48.792;9.802;2022-12-18T15:20:56;28.40;;;14.77;;
7211;SDS011;3647;48.792;9.802;2022-12-18T15:23:25;31.73;;;14.47;;
7211;SDS011;3647;48.792;9.802;2022-12-18T15:25:55;21.90;;;13.50;;
7211;SDS011;3647;48.792;9.802;2022-12-18T15:28:23;30.50;;;14.23;;
7211;SDS011;3647;48.792;9.802;2022-12-18T15:31:04;30.03;;;15.07;;
7211;SDS011;3647;48.792;9.802;2022-12-18T15:33:46;30.70;;;15.17;;
7211;SDS011;3647;48.792;9.802;2022-12-18T15:36:28;26.37;;;14.87;;
7211;SDS011;3647;48.792;9.802;2022-12-18T15:38:56;32.57;;;14.43;;
7211;SDS011;3647;48.792;9.802;2022-12-18T15:41:23;29.87;;;15.07;;
7211;SDS011;3647;48.792;9.802;2022-12-18T15:43:51;28.67;;;14.97;;
7211;SDS011;3647;48.792;9.802;2022-12-18T15:46:20;25.43;;;13.27;;
7211;SDS011;3647;48.792;9.802;2022-12-18T15:48:48;33.83;;;16.37;;
7211;SDS011;3647;48.792;9.802;2022-12-18T15:51:17;28.93;;;16.03;;
7211;SDS011;3647;48.792;9.802;2022-12-18T15:53:45;28.53;;;16.30;;
7211;SDS011;3647;48.792;9.802;2022-12-18T15:56:14;31.37;;;15.63;;
7211;SDS011;3647;48.792;9.802;2022-12-18T15:58:59;28.50;;;14.97;;
7211;SDS011;3647;48.792;9.802;2022-12-18T16:01:28;31.27;;;15.47;;
7211;SDS011;3647;48.792;9.802;2022-12-18T16:03:57;31.07;;;15.07;;
7211;SDS011;3647;48.792;9.802;2022-12-18T16:06:23;31.77;;;17.30;;
7211;SDS011;3647;48.792;9.802;2022-12-18T16:08:50;29.17;;;17.17;;
7211;SDS011;3647;48.792;9.802;2022-12-18T16:11:20;32.30;;;18.83;;
7211;SDS011;3647;48.792;9.802;2022-12-18T16:14:04;39.77;;;19.80;;
7211;SDS011;3647;48.792;9.802;2022-12-18T16:16:34;40.60;;;20.10;;
7211;SDS011;3647;48.792;9.802;2022-12-18T16:19:01;34.47;;;18.60;;
7211;SDS011;3647;48.792;9.802;2022-12-18T16:21:28;46.40;;;23.57;;
7211;SDS011;3647;48.792;9.802;2022-12-18T16:23:54;41.73;;;23.33;;
7211;SDS011;3647;48.792;9.802;2022-12-18T16:26:21;38.53;;;21.17;;
7211;SDS011;3647;48.792;9.802;2022-12-18T16:28:48;38.37;;;20.43;;
7211;SDS011;3647;48.792;9.802;2022-12-18T16:31:15;33.73;;;18.23;;
7211;SDS011;3647;48.792;9.802;2022-12-18T16:33:43;31.83;;;16.60;;
7211;SDS011;3647;48.792;9.802;2022-12-18T16:36:10;39.30;;;21.47;;
7211;SDS011;3647;48.792;9.802;2022-12-18T16:38:37;39.57;;;20.33;;
7211;SDS011;3647;48.792;9.802;2022-12-18T16:41:06;40.13;;;20.13;;
7211;SDS011;3647;48.792;9.802;2022-12-18T16:44:00;36.33;;;17.93;;
7211;SDS011;3647;48.792;9.802;2022-12-18T16:46:27;35.77;;;17.83;;
7211;SDS011;3647;48.792;9.802;2022-12-18T16:48:55;33.20;;;18.70;;
7211;SDS011;3647;48.792;9.802;2022-12-18T16:51:23;36.37;;;18.07;;
7211;SDS011;3647;48.792;9.802;2022-12-18T16:53:50;34.10;;;17.90;;
7211;SDS011;3647;48.792;9.802;2022-12-18T16:56:16;31.53;;;17.20;;
7211;SDS011;3647;48.792;9.802;2022-12-18T16:58:43;32.13;;;18.83;;
7211;SDS011;3647;48.792;9.802;2022-12-18T17:01:15;36.47;;;18.23;;
7211;SDS011;3647;48.792;9.802;2022-12-18T17:03:42;36.30;;;19.30;;
7211;SDS011;3647;48.792;9.802;2022-12-18T17:06:10;36.07;;;19.77;;
7211;SDS011;3647;48.792;9.802;2022-12-18T17:08:36;30.17;;;17.07;;
7211;SDS011;3647;48.792;9.802;2022-12-18T17:11:04;36.40;;;18.57;;
7211;SDS011;3647;48.792;9.802;2022-12-18T17:13:32;36.70;;;19.60;;
7211;SDS011;3647;48.792;9.802;2022-12-18T17:16:02;46.40;;;21.57;;
7211;SDS011;3647;48.792;9.802;2022-12-18T17:18:30;40.67;;;20.23;;
7211;SDS011;3647;48.792;9.802;2022-12-18T17:20:57;47.63;;;22.33;;
7211;SDS011;3647;48.792;9.802;2022-12-18T17:23:26;38.10;;;20.80;;
7211;SDS011;3647;48.792;9.802;2022-12-18T17:25:54;42.10;;;21.83;;
7211;SDS011;3647;48.792;9.802;2022-12-18T17:28:21;44.73;;;23.93;;
7211;SDS011;3647;48.792;9.802;2022-12-18T17:30:49;45.00;;;22.33;;
7211;SDS011;3647;48.792;9.802;2022-12-18T17:33:17;48.30;;;22.23;;
7211;SDS011;3647;48.792;9.802;2022-12-18T17:35:43;41.77;;;22.00;;
7211;SDS011;3647;48.792;9.802;2022-12-18T17:38:10;38.63;;;20.97;;
7211;SDS011;3647;48.792;9.802;2022-12-18T17:40:39;38.70;;;19.87;;
7211;SDS011;3647;48.792;9.802;2022-12-18T17:43:06;42.03;;;21.77;;
7211;SDS011;3647;48.792;9.802;2022-12-18T17:45:33;38.97;;;18.37;;
7211;SDS011;3647;48.792;9.802;2022-12-18T17:48:01;41.37;;;20.10;;
7211;SDS011;3647;48.792;9.802;2022-12-18T17:50:28;38.90;;;19.30;;
7211;SDS011;3647;48.792;9.802;2022-12-18T17:52:54;40.30;;;21.73;;
7211;SDS011;3647;48.792;9.802;2022-12-18T17:55:21;37.30;;;19.70;;
7211;SDS011;3647;48.792;9.802;2022-12-18T17:57:50;44.60;;;20.33;;
7211;SDS011;3647;48.792;9.802;2022-12-18T18:00:17;38.53;;;19.70;;
7211;SDS011;3647;48.792;9.802;2022-12-18T18:02:44;36.13;;;19.47;;
7211;SDS011;3647;48.792;9.802;2022-12-18T18:05:11;36.87;;;20.67;;
7211;SDS011;3647;48.792;9.802;2022-12-18T18:07:38;47.37;;;23.90;;
7211;SDS011;3647;48.792;9.802;2022-12-18T18:10:05;40.27;;;21.70;;
7211;SDS011;3647;48.792;9.802;2022-12-18T18:12:33;37.10;;;18.77;;
7211;SDS011;3647;48.792;9.802;2022-12-18T18:15:21;38.80;;;18.30;;
7211;SDS011;3647;48.792;9.802;2022-12-18T18:17:48;41.20;;;21.67;;
7211;SDS011;3647;48.792;9.802;2022-12-18T18:20:15;45.10;;;21.10;;
7211;SDS011;3647;48.792;9.802;2022-12-18T18:22:42;41.23;;;22.07;;
7211;SDS011;3647;48.792;9.802;2022-12-18T18:25:09;38.17;;;19.97;;
7211;SDS011;3647;48.792;9.802;2022-12-18T18:27:36;43.27;;;20.27;;
7211;SDS011;3647;48.792;9.802;2022-12-18T18:30:03;44.00;;;21.63;;
7211;SDS011;3647;48.792;9.802;2022-12-18T18:32:32;38.07;;;21.17;;
7211;SDS011;3647;48.792;9.802;2022-12-18T18:35:02;37.70;;;21.43;;
7211;SDS011;3647;48.792;9.802;2022-12-18T18:37:29;44.40;;;21.77;;
7211;SDS011;3647;48.792;9.802;2022-12-18T18:39:56;37.70;;;21.30;;
7211;SDS011;3647;48.792;9.802;2022-12-18T18:42:26;39.63;;;22.40;;
7211;SDS011;3647;48.792;9.802;2022-12-18T18:44:53;41.50;;;20.67;;
7211;SDS011;3647;48.792;9.802;2022-12-18T18:47:20;44.30;;;22.03;;
7211;SDS011;3647;48.792;9.802;2022-12-18T18:49:48;41.40;;;22.23;;
7211;SDS011;3647;48.792;9.802;2022-12-18T18:52:17;46.17;;;22.17;;
7211;SDS011;3647;48.792;9.802;2022-12-18T18:54:45;45.07;;;22.13;;
7211;SDS011;3647;48.792;9.802;2022-12-18T18:57:13;40.23;;;20.00;;
7211;SDS011;3647;48.792;9.802;2022-12-18T18:59:40;41.70;;;20.90;;
7211;SDS011;3647;48.792;9.802;2022-12-18T19:02:07;41.03;;;21.47;;
7211;SDS011;3647;48.792;9.802;2022-12-18T19:04:36;38.43;;;20.23;;
7211;SDS011;3647;48.792;9.802;2022-12-18T19:07:04;40.63;;;21.43;;
7211;SDS011;3647;48.792;9.802;2022-12-18T19:09:32;43.03;;;21.40;;
7211;SDS011;3647;48.792;9.802;2022-12-18T19:12:00;38.50;;;19.10;;
7211;SDS011;3647;48.792;9.802;2022-12-18T19:14:44;43.60;;;20.30;;
7211;SDS011;3647;48.792;9.802;2022-12-18T19:17:11;39.73;;;21.33;;
7211;SDS011;3647;48.792;9.802;2022-12-18T19:19:38;40.37;;;20.57;;
7211;SDS011;3647;48.792;9.802;2022-12-18T19:22:06;38.57;;;20.17;;
7211;SDS011;3647;48.792;9.802;2022-12-18T19:24:35;35.63;;;17.53;;
7211;SDS011;3647;48.792;9.802;2022-12-18T19:27:01;38.80;;;18.73;;
7211;SDS011;3647;48.792;9.802;2022-12-18T19:29:28;41.57;;;20.23;;
7211;SDS011;3647;48.792;9.802;2022-12-18T19:31:55;34.53;;;17.80;;
7211;SDS011;3647;48.792;9.802;2022-12-18T19:34:22;33.23;;;19.73;;
7211;SDS011;3647;48.792;9.802;2022-12-18T19:36:49;41.43;;;20.37;;
7211;SDS011;3647;48.792;9.802;2022-12-18T19:39:17;46.43;;;23.13;;
7211;SDS011;3647;48.792;9.802;2022-12-18T19:41:44;47.17;;;22.73;;
7211;SDS011;3647;48.792;9.802;2022-12-18T19:44:11;56.40;;;25.20;;
7211;SDS011;3647;48.792;9.802;2022-12-18T19:46:39;50.47;;;22.43;;
7211;SDS011;3647;48.792;9.802;2022-12-18T19:49:07;46.37;;;24.07;;
7211;SDS011;3647;48.792;9.802;2022-12-18T19:51:34;50.97;;;22.33;;
7211;SDS011;3647;48.792;9.802;2022-12-18T19:54:01;45.63;;;23.23;;
7211;SDS011;3647;48.792;9.802;2022-12-18T19:56:30;45.53;;;22.57;;
7211;SDS011;3647;48.792;9.802;2022-12-18T19:58:58;50.90;;;22.73;;
7211;SDS011;3647;48.792;9.802;2022-12-18T20:01:26;48.60;;;21.90;;
7211;SDS011;3647;48.792;9.802;2022-12-18T20:03:54;42.43;;;22.67;;
7211;SDS011;3647;48.792;9.802;2022-12-18T20:06:22;45.93;;;22.30;;
7211;SDS011;3647;48.792;9.802;2022-12-18T20:08:52;44.80;;;22.53;;
7211;SDS011;3647;48.792;9.802;2022-12-18T20:11:20;39.53;;;21.23;;
7211;SDS011;3647;48.792;9.802;2022-12-18T20:13:48;46.47;;;23.17;;
7211;SDS011;3647;48.792;9.802;2022-12-18T20:16:15;40.97;;;20.47;;
7211;SDS011;3647;48.792;9.802;2022-12-18T20:18:42;41.30;;;19.90;;
7211;SDS011;3647;48.792;9.802;2022-12-18T20:21:08;36.97;;;19.57;;
7211;SDS011;3647;48.792;9.802;2022-12-18T20:23:36;37.87;;;20.50;;
7211;SDS011;3647;48.792;9.802;2022-12-18T20:26:03;46.10;;;22.50;;
7211;SDS011;3647;48.792;9.802;2022-12-18T20:28:30;44.17;;;21.73;;
7211;SDS011;3647;48.792;9.802;2022-12-18T20:30:59;41.17;;;21.07;;
7211;SDS011;3647;48.792;9.802;2022-12-18T20:33:27;43.00;;;21.60;;
7211;SDS011;3647;48.792;9.802;2022-12-18T20:35:58;41.50;;;21.83;;
7211;SDS011;3647;48.792;9.802;2022-12-18T20:38:26;63.97;;;29.07;;
7211;SDS011;3647;48.792;9.802;2022-12-18T20:40:54;65.53;;;31.83;;
7211;SDS011;3647;48.792;9.802;2022-12-18T20:43:20;51.33;;;25.53;;
7211;SDS011;3647;48.792;9.802;2022-12-18T20:45:47;48.80;;;25.47;;
7211;SDS011;3647;48.792;9.802;2022-12-18T20:48:15;46.03;;;25.47;;
7211;SDS011;3647;48.792;9.802;2022-12-18T20:50:42;46.67;;;23.37;;
7211;SDS011;3647;48.792;9.802;2022-12-18T20:53:09;49.87;;;26.30;;
7211;SDS011;3647;48.792;9.802;2022-12-18T20:55:39;47.43;;;24.00;;
7211;SDS011;3647;48.792;9.802;2022-12-18T20:58:07;49.30;;;23.00;;
7211;SDS011;3647;48.792;9.802;2022-12-18T21:00:34;41.30;;;23.93;;
7211;SDS011;3647;48.792;9.802;2022-12-18T21:03:01;46.30;;;23.53;;
7211;SDS011;3647;48.792;9.802;2022-12-18T21:05:30;47.10;;;24.80;;
7211;SDS011;3647;48.792;9.802;2022-12-18T21:07:56;45.87;;;25.33;;
7211;SDS011;3647;48.792;9.802;2022-12-18T21:10:23;46.07;;;25.37;;
7211;SDS011;3647;48.792;9.802;2022-12-18T21:12:50;43.63;;;25.63;;
7211;SDS011;3647;48.792;9.802;2022-12-18T21:15:16;49.23;;;26.20;;
7211;SDS011;3647;48.792;9.802;2022-12-18T21:17:43;50.57;;;27.40;;
7211;SDS011;3647;48.792;9.802;2022-12-18T21:20:10;56.27;;;27.57;;
7211;SDS011;3647;48.792;9.802;2022-12-18T21:22:39;48.80;;;27.30;;
7211;SDS011;3647;48.792;9.802;2022-12-18T21:25:06;49.20;;;25.77;;
7211;SDS011;3647;48.792;9.802;2022-12-18T21:27:34;50.30;;;25.53;;
7211;SDS011;3647;48.792;9.802;2022-12-18T21:30:01;51.87;;;25.30;;
7211;SDS011;3647;48.792;9.802;2022-12-18T21:32:28;51.13;;;22.87;;
7211;SDS011;3647;48.792;9.802;2022-12-18T21:34:55;38.77;;;20.83;;
7211;SDS011;3647;48.792;9.802;2022-12-18T21:37:22;33.97;;;19.90;;
7211;SDS011;3647;48.792;9.802;2022-12-18T21:39:50;41.00;;;21.67;;
7211;SDS011;3647;48.792;9.802;2022-12-18T21:42:17;40.23;;;21.27;;
7211;SDS011;3647;48.792;9.802;2022-12-18T21:45:06;39.33;;;19.60;;
7211;SDS011;3647;48.792;9.802;2022-12-18T21:47:34;43.30;;;22.13;;
7211;SDS011;3647;48.792;9.802;2022-12-18T21:50:00;42.90;;;20.50;;
7211;SDS011;3647;48.792;9.802;2022-12-18T21:52:27;35.17;;;18.97;;
7211;SDS011;3647;48.792;9.802;2022-12-18T21:54:55;42.60;;;20.67;;
7211;SDS011;3647;48.792;9.802;2022-12-18T21:57:22;36.63;;;18.97;;
7211;SDS011;3647;48.792;9.802;2022-12-18T21:59:49;47.17;;;20.10;;
7211;SDS011;3647;48.792;9.802;2022-12-18T22:02:17;43.70;;;19.87;;
7211;SDS011;3647;48.792;9.802;2022-12-18T22:04:45;41.67;;;18.93;;
7211;SDS011;3647;48.792;9.802;2022-12-18T22:07:13;34.97;;;18.60;;
7211;SDS011;3647;48.792;9.802;2022-12-18T22:09:41;36.80;;;19.13;;
7211;SDS011;3647;48.792;9.802;2022-12-18T22:12:10;37.80;;;17.63;;
7211;SDS011;3647;48.792;9.802;2022-12-18T22:14:58;32.67;;;18.10;;
7211;SDS011;3647;48.792;9.802;2022-12-18T22:17:25;38.97;;;19.37;;
7211;SDS011;3647;48.792;9.802;2022-12-18T22:19:51;37.47;;;19.17;;
7211;SDS011;3647;48.792;9.802;2022-12-18T22:22:18;35.43;;;18.43;;
7211;SDS011;3647;48.792;9.802;2022-12-18T22:24:48;40.60;;;19.50;;
7211;SDS011;3647;48.792;9.802;2022-12-18T22:27:16;48.20;;;22.20;;
